createdAt,value
2018-11-25T00:01:39.986Z,36.06
2018-11-25T00:04:06.321Z,36.17
2018-11-25T00:06:32.725Z,35.95
2018-11-25T00:08:59.082Z,36.08
2018-11-25T00:11:25.476Z,36.11
2018-11-25T00:13:51.818Z,36.11
2018-11-25T00:16:18.144Z,36.20
2018-11-25T00:18:44.506Z,36.12
2018-11-25T00:21:10.838Z,36.11
2018-11-25T00:23:37.238Z,36.07
2018-11-25T00:26:03.567Z,36.10
2018-11-25T00:28:29.889Z,36.16
2018-11-25T00:30:56.304Z,36.09
2018-11-25T00:33:22.732Z,36.04
2018-11-25T00:35:49.091Z,36.12
2018-11-25T00:38:15.427Z,36.14
2018-11-25T00:40:41.754Z,36.15
2018-11-25T00:43:08.108Z,36.01
2018-11-25T00:45:34.449Z,36.15
2018-11-25T00:48:00.809Z,36.13
2018-11-25T00:50:27.153Z,36.04
2018-11-25T00:52:53.483Z,36.17
2018-11-25T00:55:19.820Z,36.15
2018-11-25T00:57:46.146Z,36.25
2018-11-25T01:00:12.522Z,36.06
2018-11-25T01:02:38.919Z,36.05
2018-11-25T01:05:05.335Z,36.03
2018-11-25T01:07:31.731Z,36.31
2018-11-25T01:09:58.026Z,35.96
2018-11-25T01:12:24.396Z,36.06
2018-11-25T01:14:50.763Z,36.02
2018-11-25T01:17:17.104Z,36.04
2018-11-25T01:19:43.425Z,36.23
2018-11-25T01:22:09.800Z,36.10
2018-11-25T01:24:36.079Z,36.20
2018-11-25T01:27:02.420Z,36.18
2018-11-25T01:29:28.798Z,36.27
2018-11-25T01:31:55.132Z,36.10
2018-11-25T01:34:21.461Z,36.10
2018-11-25T01:36:47.838Z,36.26
2018-11-25T01:39:14.189Z,36.27
2018-11-25T01:41:40.571Z,36.11
2018-11-25T01:44:10.406Z,36.24
2018-11-25T01:46:36.728Z,36.21
2018-11-25T01:49:03.115Z,36.21
2018-11-25T01:51:29.501Z,36.09
2018-11-25T01:53:55.783Z,36.23
2018-11-25T01:56:22.124Z,36.29
2018-11-25T01:58:48.455Z,36.20
2018-11-25T02:01:14.839Z,36.13
2018-11-25T02:03:41.205Z,36.28
2018-11-25T02:06:07.505Z,36.42
2018-11-25T02:08:33.936Z,36.20
2018-11-25T02:11:00.230Z,36.23
2018-11-25T02:13:26.586Z,36.22
2018-11-25T02:15:52.929Z,36.35
2018-11-25T02:18:19.248Z,36.30
2018-11-25T02:20:45.565Z,36.34
2018-11-25T02:23:11.991Z,36.34
2018-11-25T02:25:38.269Z,36.27
2018-11-25T02:28:04.588Z,36.33
2018-11-25T02:30:30.919Z,36.42
2018-11-25T02:32:57.332Z,36.42
2018-11-25T02:35:23.665Z,36.37
2018-11-25T02:37:50.053Z,36.25
2018-11-25T02:40:16.435Z,36.38
2018-11-25T02:42:42.753Z,36.32
2018-11-25T02:45:09.146Z,36.35
2018-11-25T02:47:35.420Z,36.28
2018-11-25T02:50:01.751Z,36.33
2018-11-25T02:52:28.085Z,36.35
2018-11-25T02:54:54.416Z,36.37
2018-11-25T02:57:20.755Z,36.25
2018-11-25T02:59:47.146Z,36.39
2018-11-25T03:02:13.483Z,36.39
2018-11-25T03:04:39.804Z,36.37
2018-11-25T03:07:06.142Z,36.36
2018-11-25T03:09:32.523Z,36.49
2018-11-25T03:11:58.884Z,36.32
2018-11-25T03:14:25.214Z,36.24
2018-11-25T03:16:51.546Z,36.34
2018-11-25T03:19:17.874Z,36.40
2018-11-25T03:21:44.201Z,36.21
2018-11-25T03:24:10.528Z,36.31
2018-11-25T03:26:36.880Z,36.58
2018-11-25T03:29:03.221Z,36.42
2018-11-25T03:31:29.524Z,36.31
2018-11-25T03:33:55.951Z,36.38
2018-11-25T03:36:22.336Z,36.43
2018-11-25T03:38:48.635Z,36.44
2018-11-25T03:41:14.979Z,36.38
2018-11-25T03:43:41.309Z,36.26
2018-11-25T03:46:07.691Z,36.48
2018-11-25T03:48:33.992Z,36.34
2018-11-25T03:51:00.316Z,36.27
2018-11-25T03:53:26.624Z,36.27
2018-11-25T03:55:52.961Z,36.49
2018-11-25T03:58:19.358Z,36.47
2018-11-25T04:00:45.647Z,36.49
2018-11-25T04:03:11.977Z,36.51
2018-11-25T04:05:38.349Z,36.34
2018-11-25T04:08:04.680Z,36.53
2018-11-25T04:10:31.053Z,36.44
2018-11-25T04:12:57.380Z,36.43
2018-11-25T04:15:23.756Z,36.49
2018-11-25T04:17:50.088Z,36.41
2018-11-25T04:20:16.435Z,36.42
2018-11-25T04:22:42.817Z,36.51
2018-11-25T04:25:09.128Z,36.61
2018-11-25T04:27:35.457Z,36.50
2018-11-25T04:30:01.805Z,36.44
2018-11-25T04:32:28.145Z,36.52
2018-11-25T04:34:54.485Z,36.47
2018-11-25T04:37:20.857Z,36.51
2018-11-25T04:39:47.206Z,36.45
2018-11-25T04:42:13.536Z,36.53
2018-11-25T04:44:39.866Z,36.34
2018-11-25T04:47:06.196Z,36.37
2018-11-25T04:49:32.525Z,36.32
2018-11-25T04:51:58.866Z,36.48
2018-11-25T04:54:25.200Z,36.37
2018-11-25T04:56:51.528Z,36.39
2018-11-25T04:59:17.863Z,36.20
2018-11-25T05:01:44.240Z,36.40
2018-11-25T05:04:10.564Z,36.27
2018-11-25T05:06:36.909Z,36.21
2018-11-25T05:09:03.240Z,36.22
2018-11-25T05:11:29.614Z,36.26
2018-11-25T05:13:55.954Z,36.21
2018-11-25T05:16:22.364Z,36.14
2018-11-25T05:18:48.704Z,36.26
2018-11-25T05:21:15.044Z,36.06
2018-11-25T05:23:41.370Z,36.30
2018-11-25T05:26:07.751Z,36.32
2018-11-25T05:28:34.087Z,36.05
2018-11-25T05:31:00.490Z,36.19
2018-11-25T05:33:26.825Z,36.03
2018-11-25T05:35:53.270Z,36.03
2018-11-25T05:38:19.625Z,35.89
2018-11-25T05:40:45.913Z,36.04
2018-11-25T05:43:12.229Z,36.16
2018-11-25T05:45:38.545Z,36.12
2018-11-25T05:48:04.943Z,36.07
2018-11-25T05:50:31.258Z,36.37
2018-11-25T05:52:57.587Z,36.14
2018-11-25T05:55:23.924Z,36.29
2018-11-25T05:57:50.248Z,36.30
2018-11-25T06:00:16.636Z,36.08
2018-11-25T06:02:42.960Z,36.04
2018-11-25T06:05:09.290Z,36.06
2018-11-25T06:07:35.607Z,36.02
2018-11-25T06:10:02.003Z,36.24
2018-11-25T06:12:28.386Z,36.18
2018-11-25T06:14:54.705Z,36.07
2018-11-25T06:17:21.059Z,36.09
2018-11-25T06:19:47.383Z,36.16
2018-11-25T06:22:13.777Z,36.12
2018-11-25T06:24:40.115Z,36.13
2018-11-25T06:27:06.522Z,36.27
2018-11-25T06:29:32.829Z,36.13
2018-11-25T06:31:59.169Z,36.32
2018-11-25T06:34:25.509Z,36.10
2018-11-25T06:36:51.841Z,36.05
2018-11-25T06:39:18.175Z,36.03
2018-11-25T06:41:44.514Z,36.01
2018-11-25T06:44:10.898Z,35.91
2018-11-25T06:46:37.231Z,35.80
2018-11-25T06:49:03.576Z,35.85
2018-11-25T06:51:29.884Z,35.61
2018-11-25T06:53:56.211Z,35.63
2018-11-25T06:56:27.366Z,35.50
2018-11-25T06:58:48.965Z,35.35
2018-11-25T07:01:15.331Z,35.31
2018-11-25T07:03:41.827Z,35.31
2018-11-25T07:06:08.177Z,35.42
2018-11-25T07:08:34.535Z,35.55
2018-11-25T07:11:00.830Z,35.60
2018-11-25T07:13:27.174Z,35.70
2018-11-25T07:15:53.534Z,35.84
2018-11-25T07:18:19.929Z,35.75
2018-11-25T07:20:46.251Z,35.77
2018-11-25T07:23:12.604Z,35.85
2018-11-25T07:25:38.922Z,35.79
2018-11-25T07:28:17.960Z,36.11
2018-11-25T07:30:31.633Z,36.13
2018-11-25T07:32:57.985Z,36.13
2018-11-25T07:35:24.311Z,36.36
2018-11-25T07:37:50.630Z,36.23
2018-11-25T07:40:16.971Z,36.05
2018-11-25T07:42:43.307Z,35.98
2018-11-25T07:45:09.742Z,36.02
2018-11-25T07:47:36.066Z,36.18
2018-11-25T07:50:02.401Z,36.22
2018-11-25T07:52:28.732Z,36.17
2018-11-25T07:54:55.083Z,36.00
2018-11-25T07:57:21.416Z,36.03
2018-11-25T07:59:47.757Z,36.21
2018-11-25T08:02:14.216Z,36.05
2018-11-25T08:04:40.532Z,36.23
2018-11-25T08:07:06.855Z,36.27
2018-11-25T08:09:33.190Z,36.30
2018-11-25T08:11:59.537Z,36.25
2018-11-25T08:14:25.915Z,36.15
2018-11-25T08:16:52.248Z,36.13
2018-11-25T08:19:18.576Z,36.18
2018-11-25T08:21:44.955Z,36.16
2018-11-25T08:24:11.283Z,36.26
2018-11-25T08:26:37.603Z,36.12
2018-11-25T08:29:03.998Z,36.27
2018-11-25T08:31:30.405Z,36.06
2018-11-25T08:33:56.728Z,36.10
2018-11-25T08:36:23.119Z,36.02
2018-11-25T08:38:49.447Z,36.13
2018-11-25T08:41:15.820Z,36.17
2018-11-25T08:43:42.157Z,36.29
2018-11-25T08:46:08.586Z,36.27
2018-11-25T08:48:34.918Z,36.28
2018-11-25T08:51:01.304Z,36.03
2018-11-25T08:53:27.624Z,36.10
2018-11-25T08:55:54.035Z,36.02
2018-11-25T08:58:20.344Z,36.14
2018-11-25T09:00:46.729Z,36.31
2018-11-25T09:03:13.118Z,36.18
2018-11-25T09:05:39.506Z,36.12
2018-11-25T09:08:05.974Z,36.14
2018-11-25T09:10:32.299Z,36.22
2018-11-25T09:12:58.666Z,36.09
2018-11-25T09:15:24.993Z,36.20
2018-11-25T09:17:51.383Z,36.34
2018-11-25T09:20:17.701Z,36.19
2018-11-25T09:22:44.145Z,36.15
2018-11-25T09:25:10.546Z,36.08
2018-11-25T09:27:36.842Z,35.98
2018-11-25T09:30:03.183Z,36.00
2018-11-25T09:32:29.603Z,35.82
2018-11-25T09:34:55.933Z,35.86
2018-11-25T09:37:22.245Z,35.89
2018-11-25T09:39:48.578Z,35.84
2018-11-25T09:42:14.940Z,35.73
2018-11-25T09:44:41.238Z,35.70
2018-11-25T09:47:07.628Z,35.67
2018-11-25T09:49:33.965Z,35.72
2018-11-25T09:52:00.299Z,35.76
2018-11-25T09:54:26.644Z,35.72
2018-11-25T09:56:53.018Z,35.83
2018-11-25T09:59:19.420Z,35.71
2018-11-25T10:01:45.727Z,35.66
2018-11-25T10:04:14.890Z,35.68
2018-11-25T10:06:41.210Z,35.67
2018-11-25T10:09:07.541Z,35.80
2018-11-25T10:11:33.926Z,35.89
2018-11-25T10:14:00.256Z,35.86
2018-11-25T10:16:26.619Z,35.83
2018-11-25T10:18:53.039Z,35.82
2018-11-25T10:21:19.416Z,35.85
2018-11-25T10:23:45.741Z,35.92
2018-11-25T10:26:12.079Z,35.92
2018-11-25T10:28:38.458Z,36.01
2018-11-25T10:31:04.807Z,36.01
2018-11-25T10:33:31.245Z,36.05
2018-11-25T10:35:57.576Z,35.98
2018-11-25T10:38:23.905Z,36.01
2018-11-25T10:40:50.229Z,35.91
2018-11-25T10:43:16.637Z,36.01
2018-11-25T10:45:42.967Z,36.14
2018-11-25T10:48:09.357Z,36.07
2018-11-25T10:50:35.687Z,36.03
2018-11-25T10:53:02.117Z,35.99
2018-11-25T10:55:28.432Z,35.99
2018-11-25T10:57:54.774Z,35.95
2018-11-25T11:00:21.112Z,36.08
2018-11-25T11:02:47.448Z,36.10
2018-11-25T11:05:13.848Z,36.07
2018-11-25T11:07:40.196Z,36.04
2018-11-25T11:10:06.527Z,36.04
2018-11-25T11:12:32.860Z,36.02
2018-11-25T11:14:59.188Z,36.12
2018-11-25T11:17:25.510Z,36.15
2018-11-25T11:19:51.907Z,36.11
2018-11-25T11:22:18.246Z,36.31
2018-11-25T11:24:44.582Z,36.16
2018-11-25T11:27:10.925Z,36.08
2018-11-25T11:29:37.336Z,36.13
2018-11-25T11:32:03.629Z,36.35
2018-11-25T11:34:29.960Z,36.29
2018-11-25T11:36:56.326Z,36.27
2018-11-25T11:39:22.628Z,36.27
2018-11-25T11:41:49.008Z,36.18
2018-11-25T11:44:15.338Z,36.19
2018-11-25T11:46:41.671Z,36.17
2018-11-25T11:49:08.008Z,36.18
2018-11-25T11:51:34.373Z,36.24
2018-11-25T11:54:00.710Z,36.30
2018-11-25T11:56:27.099Z,36.31
2018-11-25T11:58:53.427Z,36.16
2018-11-25T12:01:19.814Z,36.17
2018-11-25T12:03:46.170Z,36.25
2018-11-25T12:06:12.537Z,36.20
2018-11-25T12:08:38.852Z,36.19
2018-11-25T12:11:05.213Z,36.26
2018-11-25T12:13:31.588Z,36.23
2018-11-25T12:15:57.930Z,36.11
2018-11-25T12:18:24.293Z,36.19
2018-11-25T12:20:50.627Z,36.17
2018-11-25T12:23:16.959Z,36.15
2018-11-25T12:25:43.284Z,36.22
2018-11-25T12:28:09.734Z,36.26
2018-11-25T12:30:36.129Z,36.23
2018-11-25T12:33:02.441Z,36.18
2018-11-25T12:35:28.788Z,36.11
2018-11-25T12:37:55.178Z,36.18
2018-11-25T12:40:21.498Z,36.20
2018-11-25T12:42:47.822Z,36.23
2018-11-25T12:45:14.166Z,36.30
2018-11-25T12:47:40.493Z,36.21
2018-11-25T12:50:06.874Z,36.15
2018-11-25T12:52:33.254Z,36.13
2018-11-25T12:54:59.579Z,36.19
2018-11-25T12:57:25.917Z,36.20
2018-11-25T12:59:52.292Z,36.23
2018-11-25T13:02:18.666Z,36.21
2018-11-25T13:04:44.999Z,36.15
2018-11-25T13:07:11.324Z,36.14
2018-11-25T13:09:37.658Z,36.11
2018-11-25T13:12:03.992Z,36.17
2018-11-25T13:14:30.326Z,36.19
2018-11-25T13:16:56.658Z,36.21
2018-11-25T13:19:22.971Z,36.11
2018-11-25T13:21:49.342Z,36.00
2018-11-25T13:24:15.759Z,36.05
2018-11-25T13:26:42.001Z,36.10
2018-11-25T13:29:08.344Z,36.16
2018-11-25T13:31:34.665Z,36.18
2018-11-25T13:34:01.059Z,36.22
2018-11-25T13:36:27.391Z,36.16
2018-11-25T13:38:53.793Z,36.17
2018-11-25T13:41:20.142Z,36.08
2018-11-25T13:43:46.468Z,36.17
2018-11-25T13:46:12.854Z,36.17
2018-11-25T13:48:39.231Z,36.25
2018-11-25T13:51:05.548Z,36.17
2018-11-25T13:53:31.899Z,36.07
2018-11-25T13:55:58.216Z,36.13
2018-11-25T13:58:24.633Z,36.13
2018-11-25T14:00:51.065Z,36.15
2018-11-25T14:03:17.386Z,36.16
2018-11-25T14:05:43.703Z,36.19
2018-11-25T14:08:10.062Z,36.07
2018-11-25T14:10:36.372Z,36.16
2018-11-25T14:13:02.694Z,36.53
2018-11-25T14:15:29.709Z,36.36
2018-11-25T14:17:55.379Z,36.55
2018-11-25T14:20:21.785Z,36.72
2018-11-25T14:22:48.131Z,36.75
2018-11-25T14:25:14.500Z,36.53
2018-11-25T14:27:40.841Z,36.66
2018-11-25T14:30:13.204Z,36.40
2018-11-25T14:32:33.562Z,36.56
2018-11-25T14:34:59.900Z,36.75
2018-11-25T14:37:26.273Z,36.64
2018-11-25T14:39:52.603Z,36.61
2018-11-25T14:42:18.935Z,36.34
2018-11-25T14:44:45.269Z,36.24
2018-11-25T14:47:11.630Z,36.11
2018-11-25T14:49:37.927Z,36.59
2018-11-25T14:52:04.254Z,37.02
2018-11-25T14:54:30.609Z,37.34
2018-11-25T14:56:57.109Z,37.42
2018-11-25T14:59:23.427Z,37.11
2018-11-25T15:01:49.754Z,37.08
2018-11-25T15:04:16.087Z,36.85
2018-11-25T15:06:42.543Z,36.96
2018-11-25T15:09:08.871Z,37.00
2018-11-25T15:11:35.200Z,37.24
2018-11-25T15:14:01.541Z,37.47
2018-11-25T15:16:27.895Z,37.18
2018-11-25T15:18:54.225Z,37.50
2018-11-25T15:21:20.604Z,37.59
2018-11-25T15:23:47.242Z,37.41
2018-11-25T15:26:13.554Z,37.21
2018-11-25T15:28:39.895Z,37.28
2018-11-25T15:31:06.267Z,37.08
2018-11-25T15:33:32.649Z,37.47
2018-11-25T15:35:58.942Z,36.87
2018-11-25T15:38:25.265Z,36.84
2018-11-25T15:40:51.613Z,36.91
2018-11-25T15:43:18.189Z,37.18
2018-11-25T15:45:45.492Z,36.76
2018-11-25T15:48:11.829Z,37.04
2018-11-25T15:50:38.197Z,36.82
2018-11-25T15:53:04.552Z,36.81
2018-11-25T15:55:30.926Z,36.81
2018-11-25T15:57:57.251Z,36.84
2018-11-25T16:00:23.588Z,36.77
2018-11-25T16:02:49.984Z,36.88
2018-11-25T16:05:16.312Z,36.96
2018-11-25T16:07:42.646Z,36.85
2018-11-25T16:10:09.012Z,36.81
2018-11-25T16:12:35.385Z,36.74
2018-11-25T16:15:01.801Z,36.73
2018-11-25T16:17:28.102Z,36.69
2018-11-25T16:19:54.461Z,36.69
2018-11-25T16:22:20.787Z,36.66
2018-11-25T16:24:47.163Z,36.86
2018-11-25T16:27:13.517Z,36.70
2018-11-25T16:29:39.825Z,36.66
2018-11-25T16:32:06.176Z,36.59
2018-11-25T16:34:32.506Z,36.54
2018-11-25T16:36:58.921Z,36.54
2018-11-25T16:39:25.276Z,36.59
2018-11-25T16:41:51.706Z,36.78
2018-11-25T16:44:18.083Z,36.69
2018-11-25T16:46:44.416Z,36.73
2018-11-25T16:49:10.736Z,36.88
2018-11-25T16:51:37.128Z,37.18
2018-11-25T16:54:03.588Z,37.11
2018-11-25T16:56:29.928Z,37.18
2018-11-25T16:58:56.324Z,37.30
2018-11-25T17:01:22.707Z,37.21
2018-11-25T17:03:49.189Z,37.23
2018-11-25T17:06:15.547Z,37.23
2018-11-25T17:08:41.875Z,37.35
2018-11-25T17:11:08.173Z,37.33
2018-11-25T17:13:34.519Z,37.33
2018-11-25T17:16:00.853Z,37.32
2018-11-25T17:18:27.187Z,37.27
2018-11-25T17:20:53.529Z,37.41
2018-11-25T17:23:19.859Z,37.31
2018-11-25T17:25:46.277Z,37.38
2018-11-25T17:28:12.729Z,37.30
2018-11-25T17:30:39.037Z,37.33
2018-11-25T17:33:05.384Z,37.31
2018-11-25T17:35:31.762Z,37.31
2018-11-25T17:37:58.167Z,37.45
2018-11-25T17:40:24.541Z,37.49
2018-11-25T17:42:50.909Z,37.43
2018-11-25T17:45:17.270Z,37.44
2018-11-25T17:47:43.630Z,37.46
2018-11-25T17:50:10.061Z,37.48
2018-11-25T17:52:36.457Z,37.53
2018-11-25T17:55:02.837Z,37.55
2018-11-25T17:57:29.162Z,37.51
2018-11-25T17:59:55.461Z,37.55
2018-11-25T18:02:21.839Z,37.59
2018-11-25T18:04:48.193Z,37.63
2018-11-25T18:07:14.540Z,37.56
2018-11-25T18:09:40.865Z,37.69
2018-11-25T18:12:07.270Z,37.68
2018-11-25T18:14:33.720Z,37.71
2018-11-25T18:17:00.053Z,37.67
2018-11-25T18:19:26.399Z,37.67
2018-11-25T18:21:52.732Z,37.66
2018-11-25T18:24:19.176Z,37.74
2018-11-25T18:26:45.626Z,37.89
2018-11-25T18:29:11.962Z,37.81
2018-11-25T18:31:38.289Z,37.86
2018-11-25T18:34:04.681Z,37.76
2018-11-25T18:36:31.012Z,37.79
2018-11-25T18:38:57.348Z,37.81
2018-11-25T18:41:26.326Z,37.81
2018-11-25T18:43:52.760Z,37.89
2018-11-25T18:46:19.173Z,37.92
2018-11-25T18:48:45.523Z,37.97
2018-11-25T18:51:11.983Z,37.93
2018-11-25T18:53:38.347Z,37.89
2018-11-25T18:56:04.682Z,37.95
2018-11-25T18:58:31.084Z,37.95
2018-11-25T19:00:57.400Z,38.10
2018-11-25T19:03:23.757Z,38.02
2018-11-25T19:05:50.144Z,38.04
2018-11-25T19:08:16.463Z,38.10
2018-11-25T19:10:42.821Z,38.10
2018-11-25T19:13:09.162Z,38.06
2018-11-25T19:15:35.515Z,38.08
2018-11-25T19:18:01.929Z,38.29
2018-11-25T19:20:28.273Z,38.36
2018-11-25T19:22:54.609Z,38.24
2018-11-25T19:25:20.963Z,38.21
2018-11-25T19:27:47.366Z,38.21
2018-11-25T19:30:13.723Z,38.19
2018-11-25T19:32:40.066Z,38.22
2018-11-25T19:35:06.396Z,38.24
2018-11-25T19:37:32.774Z,38.37
2018-11-25T19:39:59.126Z,38.23
2018-11-25T19:42:25.472Z,38.27
2018-11-25T19:44:51.797Z,38.27
2018-11-25T19:47:18.179Z,38.22
2018-11-25T19:49:44.529Z,38.47
2018-11-25T19:52:10.875Z,38.29
2018-11-25T19:54:37.214Z,38.42
2018-11-25T19:57:03.570Z,38.43
2018-11-25T19:59:29.924Z,38.25
2018-11-25T20:01:56.248Z,38.35
2018-11-25T20:04:22.563Z,38.33
2018-11-25T20:06:48.926Z,38.31
2018-11-25T20:09:15.275Z,38.35
2018-11-25T20:11:41.775Z,38.35
2018-11-25T20:14:08.100Z,38.30
2018-11-25T20:16:34.430Z,38.31
2018-11-25T20:19:00.758Z,38.32
2018-11-25T20:21:27.094Z,38.43
2018-11-25T20:23:53.422Z,38.44
2018-11-25T20:26:19.796Z,38.44
2018-11-25T20:28:46.134Z,38.47
2018-11-25T20:31:12.480Z,38.33
2018-11-25T20:33:38.816Z,38.42
2018-11-25T20:36:05.155Z,38.35
2018-11-25T20:38:31.538Z,38.38
2018-11-25T20:40:57.888Z,38.40
2018-11-25T20:43:24.182Z,38.37
2018-11-25T20:45:50.528Z,38.33
2018-11-25T20:48:16.852Z,38.22
2018-11-25T20:50:43.181Z,38.31
2018-11-25T20:53:09.500Z,38.14
2018-11-25T20:55:35.841Z,38.25
2018-11-25T20:58:02.169Z,38.32
2018-11-25T21:00:28.498Z,38.21
2018-11-25T21:02:54.819Z,38.13
2018-11-25T21:05:21.156Z,38.13
2018-11-25T21:07:47.482Z,38.24
2018-11-25T21:10:13.828Z,38.19
2018-11-25T21:12:40.144Z,38.33
2018-11-25T21:15:06.474Z,38.21
2018-11-25T21:17:32.805Z,38.26
2018-11-25T21:19:59.190Z,38.29
2018-11-25T21:22:25.520Z,38.23
2018-11-25T21:24:51.852Z,38.18
2018-11-25T21:27:18.204Z,38.00
2018-11-25T21:29:44.559Z,38.24
2018-11-25T21:32:10.903Z,38.22
2018-11-25T21:34:37.233Z,38.19
2018-11-25T21:37:03.551Z,38.04
2018-11-25T21:39:29.882Z,38.07
2018-11-25T21:41:56.228Z,38.08
2018-11-25T21:44:22.556Z,38.15
2018-11-25T21:46:48.937Z,38.16
2018-11-25T21:49:15.276Z,38.07
2018-11-25T21:51:41.637Z,38.01
2018-11-25T21:54:07.956Z,38.23
2018-11-25T21:56:34.280Z,38.05
2018-11-25T21:59:00.667Z,38.15
2018-11-25T22:01:26.958Z,38.02
2018-11-25T22:03:53.288Z,38.16
2018-11-25T22:06:19.658Z,38.11
2018-11-25T22:08:46.011Z,38.01
2018-11-25T22:11:12.340Z,38.09
2018-11-25T22:13:38.716Z,37.95
2018-11-25T22:16:05.043Z,38.08
2018-11-25T22:18:31.371Z,38.01
2018-11-25T22:20:57.710Z,37.98
2018-11-25T22:23:24.041Z,38.09
2018-11-25T22:25:50.420Z,38.03
2018-11-25T22:28:16.749Z,37.91
2018-11-25T22:30:43.098Z,37.86
2018-11-25T22:33:09.459Z,37.91
2018-11-25T22:35:35.777Z,38.01
2018-11-25T22:38:02.132Z,38.00
2018-11-25T22:40:28.485Z,38.03
2018-11-25T22:42:54.845Z,37.97
2018-11-25T22:45:21.211Z,37.92
2018-11-25T22:47:47.535Z,37.97
2018-11-25T22:50:13.878Z,38.00
2018-11-25T22:52:40.225Z,37.97
2018-11-25T22:55:06.554Z,37.78
2018-11-25T22:57:32.871Z,37.97
2018-11-25T22:59:59.202Z,38.00
2018-11-25T23:02:25.539Z,38.05
2018-11-25T23:04:51.867Z,37.96
2018-11-25T23:07:18.251Z,37.92
2018-11-25T23:09:44.610Z,37.88
2018-11-25T23:12:10.936Z,37.88
2018-11-25T23:14:37.242Z,37.84
2018-11-25T23:17:03.623Z,38.01
2018-11-25T23:19:29.966Z,38.01
2018-11-25T23:21:56.305Z,38.02
2018-11-25T23:24:22.630Z,37.76
2018-11-25T23:26:48.999Z,37.85
2018-11-25T23:29:15.290Z,37.95
2018-11-25T23:31:41.625Z,37.95
2018-11-25T23:34:07.958Z,37.97
2018-11-25T23:36:34.293Z,37.96
2018-11-25T23:39:00.626Z,38.03
2018-11-25T23:41:26.960Z,37.94
2018-11-25T23:43:53.280Z,38.07
2018-11-25T23:46:19.610Z,37.99
2018-11-25T23:48:45.936Z,38.05
2018-11-25T23:51:12.322Z,38.03
2018-11-25T23:53:38.627Z,38.29
2018-11-25T23:56:04.982Z,38.09
2018-11-25T23:58:31.319Z,38.04
